Terminal Aerodrome Forecast
Issued by NWS Flagstaff, AZ

Home | Current Version | Previous Version | Text Only | Print | Product List | Glossary On
Versions: 1 2 3 4 5 6 7 8 9 10 11 12 13 14 15 16
000
FTUS45 KFGZ 031733
TAFFLG
TAF
KFLG 031733Z 0318/0418 22012KT P6SM SCT080 BKN150
     FM032000 22006KT P6SM VCTS SCT060CB BKN100
      TEMPO 0320/0324 VRB15G25KT 4SM TSRA BKN060CB
     FM040200 VRB06KT P6SM SCT080 BKN120 PROB30 0403/0407 VRB10G20KT
      TSRA BKN060CB=

USA.gov is the U.S. government's official web portal to all federal, state and local government web resources and services.